SGEN/ENO METAR and TAF weather

Enter ICAO airport designator
Station Type Date Time Source
SGEN METAR 2020/04/04 12:00 UTC NOAA

SGEN 041200Z 00000KT CAVOK 16/11 Q1015


Station Type Date Time Source
SGEN Decoded METAR 2020/04/04 12:00 UTC NOAA

Encarnacion, Paraguay (SGEN) 27-19S 055-50W 91M
Apr 04, 2020 - 08:00 AM EDT / 2020.04.04 1200 UTC
Wind: Calm:0
Visibility: greater than 7 mile(s):0
Temperature: 60 F (16 C)
Dew Point: 51 F (11 C)
Relative Humidity: 72%
Pressure (altimeter): 29.97 in. Hg (1015 hPa)
ob: SGEN 041200Z 00000KT CAVOK 16/11 Q1015
cycle: 12

Station Type Date Time Source
SGEN TAF 2020/04/04 12:00 UTC NOAA

TAF SGEN 041015Z 0412/0512 00000KT CAVOK TX27/0418Z TN16/0509Z
BECMG 0415/0418 05005KT

Example: see airport list